createdAt,value
2019-04-11T00:02:10.061Z,29.83
2019-04-11T00:04:42.037Z,27.40
2019-04-11T00:07:14.432Z,31.80
2019-04-11T00:09:45.421Z,28.70
2019-04-11T00:12:18.722Z,31.50
2019-04-11T00:14:49.217Z,31.80
2019-04-11T00:17:21.630Z,30.60
2019-04-11T00:19:52.286Z,28.00
2019-04-11T00:22:25.972Z,27.50
2019-04-11T00:24:58.981Z,31.23
2019-04-11T00:27:30.840Z,31.43
2019-04-11T00:30:01.992Z,34.03
2019-04-11T00:32:33.822Z,32.87
2019-04-11T00:35:05.619Z,28.30
2019-04-11T00:37:37.034Z,30.27
2019-04-11T00:40:08.979Z,32.87
2019-04-11T00:42:40.933Z,33.43
2019-04-11T00:45:13.648Z,33.27
2019-04-11T00:47:44.990Z,31.03
2019-04-11T00:50:15.487Z,31.77
2019-04-11T00:52:47.595Z,32.80
2019-04-11T00:55:19.631Z,36.03
2019-04-11T00:57:50.300Z,28.27
2019-04-11T01:00:22.824Z,31.90
2019-04-11T01:02:53.751Z,31.70
2019-04-11T01:05:25.615Z,27.77
2019-04-11T01:07:57.664Z,37.10
2019-04-11T01:10:28.375Z,33.57
2019-04-11T01:13:00.790Z,34.67
2019-04-11T01:15:31.405Z,27.80
2019-04-11T01:18:04.194Z,38.83
2019-04-11T01:20:41.918Z,32.90
2019-04-11T01:23:18.594Z,29.50
2019-04-11T01:25:59.004Z,33.23
2019-04-11T01:28:36.762Z,30.30
2019-04-11T01:31:15.633Z,30.23
2019-04-11T01:33:58.036Z,34.20
2019-04-11T01:36:35.257Z,32.70
2019-04-11T01:39:28.028Z,30.70
2019-04-11T01:42:16.641Z,31.90
2019-04-11T01:44:49.782Z,32.27
2019-04-11T01:48:03.702Z,34.70
2019-04-11T01:50:45.064Z,30.60
2019-04-11T01:53:37.323Z,32.13
2019-04-11T01:56:11.156Z,30.27
2019-04-11T01:58:44.715Z,30.73
2019-04-11T02:01:49.367Z,32.00
2019-04-11T02:04:28.328Z,30.63
2019-04-11T02:07:10.145Z,34.93
2019-04-11T02:09:50.518Z,32.27
2019-04-11T02:12:30.941Z,30.93
2019-04-11T02:15:06.022Z,29.50
2019-04-11T02:17:43.465Z,31.00
2019-04-11T02:20:17.161Z,36.20
2019-04-11T02:23:15.067Z,39.77
2019-04-11T02:26:10.067Z,31.00
2019-04-11T02:28:44.551Z,36.83
2019-04-11T02:31:17.149Z,35.77
2019-04-11T02:33:51.171Z,33.50
2019-04-11T02:36:22.420Z,30.77
2019-04-11T02:38:56.576Z,34.97
2019-04-11T02:41:25.515Z,34.53
2019-04-11T02:43:57.970Z,36.13
2019-04-11T02:46:41.221Z,31.93
2019-04-11T02:49:03.251Z,34.23
2019-04-11T02:51:35.065Z,28.73
2019-04-11T02:54:11.505Z,41.30
2019-04-11T02:56:45.547Z,30.70
2019-04-11T02:59:17.588Z,30.00
2019-04-11T03:01:50.937Z,28.70
2019-04-11T03:04:24.494Z,35.33
2019-04-11T03:06:57.421Z,36.60
2019-04-11T03:09:29.127Z,36.23
2019-04-11T03:11:59.671Z,31.47
2019-04-11T03:14:46.123Z,31.87
2019-04-11T03:17:14.058Z,36.03
2019-04-11T03:19:49.226Z,33.53
2019-04-11T03:22:09.968Z,34.80
2019-04-11T03:24:42.754Z,32.97
2019-04-11T03:27:15.535Z,36.27
2019-04-11T03:29:47.152Z,29.63
2019-04-11T03:33:07.282Z,29.13
2019-04-11T03:36:00.735Z,35.83
2019-04-11T03:37:54.706Z,28.43
2019-04-11T03:40:23.844Z,33.00
2019-04-11T03:42:46.523Z,35.67
2019-04-11T03:45:32.798Z,35.73
2019-04-11T03:48:03.781Z,30.13
2019-04-11T03:50:21.976Z,30.20
2019-04-11T03:52:51.864Z,31.40
2019-04-11T03:55:28.389Z,30.53
2019-04-11T03:58:01.309Z,29.60
2019-04-11T04:00:35.977Z,30.97
2019-04-11T04:03:09.112Z,29.07
2019-04-11T04:05:42.309Z,32.30
2019-04-11T04:08:15.562Z,28.47
2019-04-11T04:11:06.250Z,27.10
2019-04-11T04:13:39.920Z,29.43
2019-04-11T04:16:36.560Z,32.27
2019-04-11T04:19:25.143Z,28.97
2019-04-11T04:22:11.124Z,29.47
2019-04-11T04:24:43.221Z,29.90
2019-04-11T04:27:15.488Z,33.30
2019-04-11T04:29:52.855Z,28.87
2019-04-11T04:32:23.694Z,30.80
2019-04-11T04:34:56.036Z,30.00
2019-04-11T04:37:29.601Z,34.10
2019-04-11T04:40:21.654Z,29.43
2019-04-11T04:42:40.352Z,30.93
2019-04-11T04:45:11.806Z,31.83
2019-04-11T04:47:51.420Z,29.40
2019-04-11T04:50:18.058Z,30.63
2019-04-11T04:52:51.585Z,29.90
2019-04-11T04:55:23.564Z,30.43
2019-04-11T04:57:57.684Z,26.37
2019-04-11T05:00:34.837Z,28.10
2019-04-11T05:03:07.493Z,27.83
2019-04-11T05:05:38.509Z,34.30
2019-04-11T05:08:10.654Z,28.50
2019-04-11T05:10:43.140Z,38.50
2019-04-11T05:13:17.211Z,30.97
2019-04-11T05:15:48.989Z,27.70
2019-04-11T05:18:20.754Z,32.37
2019-04-11T05:20:54.776Z,31.03
2019-04-11T05:23:25.722Z,29.50
2019-04-11T05:25:57.167Z,29.03
2019-04-11T05:28:29.826Z,32.80
2019-04-11T05:31:00.688Z,27.77
2019-04-11T05:33:31.916Z,29.53
2019-04-11T05:36:04.020Z,31.53
2019-04-11T05:38:35.994Z,28.53
2019-04-11T05:41:12.128Z,33.23
2019-04-11T05:43:41.819Z,34.40
2019-04-11T05:46:26.051Z,30.77
2019-04-11T05:49:16.921Z,29.50
2019-04-11T05:51:58.880Z,26.70
2019-04-11T05:54:36.484Z,31.53
2019-04-11T05:57:09.110Z,27.60
2019-04-11T05:59:41.212Z,28.23
2019-04-11T06:02:21.394Z,27.87
2019-04-11T06:05:02.782Z,29.60
2019-04-11T06:07:42.091Z,27.93
2019-04-11T06:10:18.389Z,28.20
2019-04-11T06:13:13.308Z,28.40
2019-04-11T06:15:47.316Z,29.80
2019-04-11T06:18:33.114Z,30.33
2019-04-11T06:21:09.497Z,34.83
2019-04-11T06:24:09.923Z,40.43
2019-04-11T06:26:58.874Z,25.23
2019-04-11T06:29:41.243Z,25.97
2019-04-11T06:32:47.883Z,28.40
2019-04-11T06:35:28.768Z,29.90
2019-04-11T06:38:18.554Z,25.10
2019-04-11T06:41:04.094Z,29.37
2019-04-11T06:43:47.958Z,26.50
2019-04-11T06:46:55.776Z,29.83
2019-04-11T06:49:36.319Z,29.20
2019-04-11T06:52:10.612Z,27.87
2019-04-11T06:54:58.598Z,30.30
2019-04-11T06:57:32.026Z,25.67
2019-04-11T07:00:03.445Z,27.40
2019-04-11T07:02:38.931Z,29.03
2019-04-11T07:05:11.838Z,24.67
2019-04-11T07:07:47.327Z,36.13
2019-04-11T07:10:20.857Z,33.10
2019-04-11T07:13:03.487Z,24.07
2019-04-11T07:15:50.612Z,28.03
2019-04-11T07:18:40.261Z,27.30
2019-04-11T07:21:12.197Z,28.90
2019-04-11T07:24:03.241Z,28.60
2019-04-11T07:26:58.834Z,32.60
2019-04-11T07:30:01.496Z,28.50
2019-04-11T07:32:32.522Z,27.27
2019-04-11T07:35:27.644Z,29.70
2019-04-11T07:38:01.092Z,41.30
2019-04-11T07:41:00.661Z,29.00
2019-04-11T07:43:35.443Z,36.30
2019-04-11T07:46:25.558Z,27.37
2019-04-11T07:49:10.039Z,27.50
2019-04-11T07:51:50.689Z,26.07
2019-04-11T07:54:25.945Z,28.20
2019-04-11T07:57:32.383Z,28.97
2019-04-11T08:00:36.730Z,32.70
2019-04-11T08:03:21.465Z,29.90
2019-04-11T08:06:11.713Z,32.97
2019-04-11T08:09:05.037Z,26.53
2019-04-11T08:11:45.387Z,29.00
2019-04-11T08:14:44.596Z,29.17
2019-04-11T08:17:27.903Z,29.93
2019-04-11T08:20:08.057Z,29.83
2019-04-11T08:22:47.762Z,32.40
2019-04-11T08:25:57.754Z,32.30
2019-04-11T08:28:28.952Z,31.27
2019-04-11T08:31:11.034Z,36.33
2019-04-11T08:33:43.888Z,27.30
2019-04-11T08:36:33.775Z,33.20
2019-04-11T08:39:11.660Z,37.33
2019-04-11T08:42:03.129Z,38.10
2019-04-11T08:44:39.661Z,32.80
2019-04-11T08:47:13.047Z,31.67
2019-04-11T08:49:48.171Z,33.90
2019-04-11T08:52:38.510Z,34.53
2019-04-11T08:55:17.249Z,27.77
2019-04-11T08:57:51.892Z,35.03
2019-04-11T09:00:42.305Z,34.03
2019-04-11T09:03:29.468Z,30.77
2019-04-11T09:06:06.187Z,35.37
2019-04-11T09:09:02.813Z,30.20
2019-04-11T09:11:47.041Z,38.00
2019-04-11T09:14:41.071Z,42.20
2019-04-11T09:17:44.465Z,30.20
2019-04-11T09:20:38.333Z,31.33
2019-04-11T09:23:11.441Z,38.30
2019-04-11T09:26:20.200Z,28.33
2019-04-11T09:28:54.593Z,31.57
2019-04-11T09:31:51.989Z,35.53
2019-04-11T09:34:40.089Z,34.43
2019-04-11T09:37:30.965Z,32.80
2019-04-11T09:40:26.065Z,32.53
2019-04-11T09:43:15.996Z,38.03
2019-04-11T09:46:24.105Z,36.00
2019-04-11T09:49:12.368Z,32.97
2019-04-11T09:51:56.083Z,38.80
2019-04-11T09:54:42.068Z,32.10
2019-04-11T09:57:34.526Z,27.00
2019-04-11T10:00:27.381Z,29.23
2019-04-11T10:03:08.752Z,33.23
2019-04-11T10:05:59.767Z,35.03
2019-04-11T10:08:51.217Z,32.13
2019-04-11T10:11:55.006Z,33.67
2019-04-11T10:14:27.331Z,32.77
2019-04-11T10:17:26.882Z,27.83
2019-04-11T10:20:04.637Z,32.93
2019-04-11T10:23:12.486Z,29.97
2019-04-11T10:25:52.255Z,27.60
2019-04-11T10:28:49.597Z,29.77
2019-04-11T10:31:22.485Z,31.37
2019-04-11T10:34:27.852Z,30.40
2019-04-11T10:37:04.450Z,31.70
2019-04-11T10:39:54.607Z,36.67
2019-04-11T10:42:26.843Z,26.33
2019-04-11T10:45:16.999Z,27.97
2019-04-11T10:47:49.304Z,28.63
2019-04-11T10:50:53.591Z,28.83
2019-04-11T10:53:26.878Z,29.23
2019-04-11T10:56:18.117Z,26.37
2019-04-11T10:58:51.283Z,25.03
2019-04-11T11:01:40.431Z,29.37
2019-04-11T11:04:15.882Z,23.60
2019-04-11T11:06:51.794Z,25.90
2019-04-11T11:09:36.800Z,37.43
2019-04-11T11:12:27.413Z,29.03
2019-04-11T11:15:09.637Z,28.60
2019-04-11T11:18:31.040Z,26.10
2019-04-11T11:20:51.512Z,28.60
2019-04-11T11:23:37.342Z,28.77
2019-04-11T11:26:10.827Z,24.70
2019-04-11T11:28:52.580Z,28.40
2019-04-11T11:31:48.084Z,26.67
2019-04-11T11:34:26.305Z,28.07
2019-04-11T11:37:25.885Z,27.80
2019-04-11T11:40:18.031Z,24.80
2019-04-11T11:43:08.713Z,28.17
2019-04-11T11:45:51.610Z,31.07
2019-04-11T11:48:54.382Z,31.20
2019-04-11T11:51:47.784Z,30.67
2019-04-11T11:54:21.940Z,28.60
2019-04-11T11:56:54.404Z,26.80
2019-04-11T11:59:44.828Z,27.23
2019-04-11T12:02:26.378Z,24.37
2019-04-11T12:05:26.098Z,22.03
2019-04-11T12:08:16.604Z,29.13
2019-04-11T12:11:01.848Z,29.40
2019-04-11T12:14:00.012Z,24.07
2019-04-11T12:17:03.306Z,24.30
2019-04-11T12:19:47.669Z,21.43
2019-04-11T12:22:13.257Z,22.70
2019-04-11T12:24:57.199Z,22.57
2019-04-11T12:27:53.815Z,24.23
2019-04-11T12:30:44.150Z,24.70
2019-04-11T12:33:35.329Z,23.30
2019-04-11T12:36:16.747Z,26.00
2019-04-11T12:39:17.021Z,27.30
2019-04-11T12:42:04.692Z,28.03
2019-04-11T12:44:43.776Z,30.70
2019-04-11T12:47:38.330Z,21.20
2019-04-11T12:50:31.271Z,30.67
2019-04-11T12:53:13.703Z,21.80
2019-04-11T12:56:17.301Z,27.63
2019-04-11T12:59:09.558Z,18.57
2019-04-11T13:01:58.327Z,31.03
2019-04-11T13:04:31.999Z,27.93
2019-04-11T13:07:24.358Z,29.23
2019-04-11T13:10:14.267Z,22.40
2019-04-11T13:13:04.018Z,25.53
2019-04-11T13:15:41.091Z,20.10
2019-04-11T13:18:20.446Z,21.20
2019-04-11T13:20:56.473Z,21.03
2019-04-11T13:23:40.568Z,19.60
2019-04-11T13:26:39.367Z,21.23
2019-04-11T13:29:38.334Z,23.60
2019-04-11T13:32:34.511Z,25.80
2019-04-11T13:35:23.668Z,23.27
2019-04-11T13:38:07.349Z,20.63
2019-04-11T13:41:03.560Z,22.60
2019-04-11T13:43:51.419Z,21.70
2019-04-11T13:46:47.158Z,20.80
2019-04-11T13:49:35.761Z,23.10
2019-04-11T13:52:29.728Z,18.67
2019-04-11T13:55:18.988Z,20.00
2019-04-11T13:58:12.697Z,26.77
2019-04-11T14:00:57.057Z,22.20
2019-04-11T14:03:46.754Z,21.53
2019-04-11T14:06:40.575Z,25.00
2019-04-11T14:09:33.605Z,23.27
2019-04-11T14:12:09.836Z,20.53
2019-04-11T14:14:59.053Z,22.67
2019-04-11T14:17:51.876Z,24.40
2019-04-11T14:20:29.660Z,21.47
2019-04-11T14:23:16.656Z,20.13
2019-04-11T14:26:08.125Z,20.90
2019-04-11T14:29:05.717Z,20.10
2019-04-11T14:32:10.213Z,19.27
2019-04-11T14:35:02.549Z,26.20
2019-04-11T14:37:56.134Z,23.53
2019-04-11T14:40:42.728Z,23.33
2019-04-11T14:43:27.759Z,26.00
2019-04-11T14:46:22.329Z,18.17
2019-04-11T14:49:10.207Z,24.57
2019-04-11T14:51:58.577Z,23.03
2019-04-11T14:54:49.224Z,22.57
2019-04-11T14:57:48.196Z,24.30
2019-04-11T15:00:34.065Z,20.93
2019-04-11T15:03:22.873Z,23.20
2019-04-11T15:06:22.865Z,21.40
2019-04-11T15:09:11.259Z,22.07
2019-04-11T15:12:08.575Z,20.20
2019-04-11T15:15:02.032Z,21.73
2019-04-11T15:17:37.551Z,17.70
2019-04-11T15:20:24.479Z,19.37
2019-04-11T15:23:07.674Z,17.73
2019-04-11T15:26:09.016Z,26.17
2019-04-11T15:28:58.214Z,19.40
2019-04-11T15:31:47.747Z,16.50
2019-04-11T15:34:37.597Z,22.20
2019-04-11T15:37:36.010Z,20.50
2019-04-11T15:40:37.724Z,26.00
2019-04-11T15:43:42.212Z,29.97
2019-04-11T15:46:18.975Z,20.03
2019-04-11T15:49:19.963Z,17.77
2019-04-11T15:52:01.863Z,19.17
2019-04-11T15:54:55.186Z,18.40
2019-04-11T15:57:34.667Z,18.87
2019-04-11T16:00:29.360Z,22.03
2019-04-11T16:03:13.520Z,21.17
2019-04-11T16:06:02.835Z,19.53
2019-04-11T16:09:03.134Z,19.63
2019-04-11T16:11:53.924Z,18.53
2019-04-11T16:14:43.689Z,24.63
2019-04-11T16:17:36.485Z,23.80
2019-04-11T16:20:20.215Z,22.20
2019-04-11T16:23:10.296Z,22.10
2019-04-11T16:25:47.131Z,26.23
2019-04-11T16:28:43.795Z,20.07
2019-04-11T16:31:15.024Z,23.13
2019-04-11T16:34:17.952Z,20.70
2019-04-11T16:36:54.067Z,27.97
2019-04-11T16:39:54.848Z,20.13
2019-04-11T16:42:42.474Z,21.20
2019-04-11T16:45:40.630Z,18.30
2019-04-11T16:48:11.704Z,23.00
2019-04-11T16:50:43.501Z,25.83
2019-04-11T16:53:15.097Z,26.47
2019-04-11T16:55:47.804Z,19.17
2019-04-11T16:58:19.601Z,23.53
2019-04-11T17:00:52.583Z,23.93
2019-04-11T17:03:25.680Z,23.50
2019-04-11T17:06:44.226Z,20.50
2019-04-11T17:09:31.998Z,26.07
2019-04-11T17:12:04.845Z,28.70
2019-04-11T17:14:35.224Z,23.60
2019-04-11T17:17:14.981Z,24.53
2019-04-11T17:19:38.822Z,22.20
2019-04-11T17:22:10.199Z,23.87
2019-04-11T17:24:41.030Z,23.50
2019-04-11T17:27:12.892Z,27.40
2019-04-11T17:29:44.837Z,32.20
2019-04-11T17:32:16.833Z,29.23
2019-04-11T17:34:47.779Z,30.40
2019-04-11T17:37:19.770Z,26.00
2019-04-11T17:39:51.813Z,31.13
2019-04-11T17:42:23.405Z,28.50
2019-04-11T17:44:55.370Z,31.40
2019-04-11T17:47:27.066Z,27.60
2019-04-11T17:49:59.566Z,33.40
2019-04-11T17:52:30.173Z,33.40
2019-04-11T17:55:01.830Z,31.37
2019-04-11T17:57:32.925Z,30.52
2019-04-11T18:00:05.346Z,34.27
2019-04-11T18:02:39.027Z,26.63
2019-04-11T18:05:08.715Z,31.80
2019-04-11T18:07:41.494Z,32.07
2019-04-11T18:10:12.442Z,27.30
2019-04-11T18:12:43.890Z,30.27
2019-04-11T18:15:15.533Z,34.90
2019-04-11T18:17:47.190Z,28.30
2019-04-11T18:20:20.028Z,28.60
2019-04-11T18:22:50.954Z,28.83
2019-04-11T18:25:22.042Z,31.17
2019-04-11T18:27:53.647Z,30.00
2019-04-11T18:30:24.726Z,29.47
2019-04-11T18:32:56.537Z,26.40
2019-04-11T18:35:31.763Z,26.20
2019-04-11T18:38:02.682Z,32.63
2019-04-11T18:40:34.460Z,24.77
2019-04-11T18:43:06.352Z,31.93
2019-04-11T18:45:38.073Z,25.43
2019-04-11T18:48:09.564Z,25.60
2019-04-11T18:50:41.122Z,28.30
2019-04-11T18:53:12.779Z,32.30
2019-04-11T18:55:44.814Z,29.20
2019-04-11T18:58:15.798Z,33.87
2019-04-11T19:00:47.652Z,28.50
2019-04-11T19:03:19.559Z,25.70
2019-04-11T19:05:51.454Z,24.77
2019-04-11T19:08:22.526Z,28.90
2019-04-11T19:10:54.294Z,24.87
2019-04-11T19:13:26.008Z,25.33
2019-04-11T19:15:57.993Z,22.47
2019-04-11T19:18:29.070Z,22.80
2019-04-11T19:21:01.000Z,26.13
2019-04-11T19:23:32.799Z,24.40
2019-04-11T19:26:04.640Z,29.30
2019-04-11T19:28:36.300Z,33.40
2019-04-11T19:31:07.520Z,26.23
2019-04-11T19:33:39.975Z,23.93
2019-04-11T19:36:12.297Z,25.97
2019-04-11T19:38:43.967Z,26.60
2019-04-11T19:41:17.463Z,29.20
2019-04-11T19:43:49.816Z,23.47
2019-04-11T19:46:21.002Z,25.90
2019-04-11T19:48:55.364Z,28.43
2019-04-11T19:51:28.785Z,29.90
2019-04-11T19:54:03.021Z,27.97
2019-04-11T19:56:41.348Z,25.57
2019-04-11T19:59:14.314Z,34.20
2019-04-11T20:01:45.427Z,28.60
2019-04-11T20:04:34.160Z,21.07
2019-04-11T20:07:22.689Z,24.03
2019-04-11T20:10:11.444Z,28.63
2019-04-11T20:13:01.988Z,23.90
2019-04-11T20:15:50.608Z,25.33
2019-04-11T20:18:50.420Z,26.20
2019-04-11T20:21:28.892Z,24.37
2019-04-11T20:24:17.424Z,26.70
2019-04-11T20:27:05.734Z,29.97
2019-04-11T20:29:55.358Z,24.13
2019-04-11T20:32:44.146Z,24.50
2019-04-11T20:35:32.638Z,24.07
2019-04-11T20:38:20.847Z,25.17
2019-04-11T20:41:09.270Z,27.23
2019-04-11T20:43:57.893Z,24.93
2019-04-11T20:46:46.038Z,23.80
2019-04-11T20:49:45.625Z,23.83
2019-04-11T20:52:33.915Z,27.10
2019-04-11T20:55:22.679Z,24.53
2019-04-11T20:58:11.103Z,23.00
2019-04-11T21:01:00.611Z,24.00
2019-04-11T21:03:48.999Z,35.30
2019-04-11T21:06:37.594Z,25.30
2019-04-11T21:09:25.854Z,28.70
2019-04-11T21:12:16.475Z,23.40
2019-04-11T21:15:05.324Z,26.43
2019-04-11T21:17:56.124Z,33.43
2019-04-11T21:20:44.062Z,24.77
2019-04-11T21:23:32.981Z,23.30
2019-04-11T21:26:21.217Z,22.37
2019-04-11T21:29:10.177Z,26.80
2019-04-11T21:32:00.919Z,22.00
2019-04-11T21:34:55.830Z,23.87
2019-04-11T21:37:44.374Z,22.10
2019-04-11T21:40:35.620Z,26.30
2019-04-11T21:43:23.153Z,22.80
2019-04-11T21:46:11.458Z,24.03
2019-04-11T21:48:59.788Z,24.80
2019-04-11T21:51:48.061Z,21.60
2019-04-11T21:55:02.788Z,25.13
2019-04-11T21:57:51.437Z,20.40
2019-04-11T22:00:43.622Z,21.60
2019-04-11T22:03:32.956Z,25.73
2019-04-11T22:06:21.224Z,23.50
2019-04-11T22:09:10.298Z,23.00
2019-04-11T22:11:59.948Z,21.70
2019-04-11T22:14:48.606Z,21.50
2019-04-11T22:17:37.066Z,30.00
2019-04-11T22:20:25.742Z,23.37
2019-04-11T22:23:14.165Z,28.00
2019-04-11T22:26:02.723Z,25.53
2019-04-11T22:28:54.918Z,22.83
2019-04-11T22:31:41.173Z,20.23
2019-04-11T22:34:43.946Z,21.37
2019-04-11T22:37:32.571Z,22.47
2019-04-11T22:40:20.817Z,24.87
2019-04-11T22:43:21.747Z,20.83
2019-04-11T22:45:59.598Z,20.07
2019-04-11T22:48:47.835Z,27.93
2019-04-11T22:51:36.205Z,22.10
2019-04-11T22:54:24.772Z,24.97
2019-04-11T22:57:13.453Z,19.60
2019-04-11T23:00:01.752Z,18.80
2019-04-11T23:03:08.920Z,30.60
2019-04-11T23:05:57.788Z,20.67
2019-04-11T23:08:48.532Z,20.03
2019-04-11T23:11:36.411Z,18.93
2019-04-11T23:14:24.613Z,20.57
2019-04-11T23:17:14.197Z,22.53
2019-04-11T23:20:03.646Z,20.40
2019-04-11T23:22:52.214Z,22.77
2019-04-11T23:25:40.377Z,18.97
2019-04-11T23:28:28.609Z,22.83
2019-04-11T23:31:19.922Z,20.50
2019-04-11T23:34:07.212Z,19.93
2019-04-11T23:36:56.062Z,20.03
2019-04-11T23:39:44.491Z,20.57
2019-04-11T23:42:33.140Z,16.90
2019-04-11T23:45:24.426Z,18.67
2019-04-11T23:48:12.665Z,21.87
2019-04-11T23:51:00.987Z,20.17
2019-04-11T23:53:49.680Z,19.43
2019-04-11T23:56:38.027Z,22.50
2019-04-11T23:59:31.726Z,18.27
